TimeCST,TemperatureF,Dew PointF,Humidity,Sea Level PressureIn,VisibilityMPH,Wind Direction,Wind SpeedMPH,Gust SpeedMPH,PrecipitationIn,Events,Conditions,WindDirDegrees,DateUTC
12:15 AM,32.0,26.6,80,29.66,10.0,South,8.1,-,N/A,,Partly Cloudy,180,2014-01-14 06:15:00
12:35 AM,32.0,26.6,80,29.65,10.0,South,8.1,-,N/A,,Scattered Clouds,180,2014-01-14 06:35:00
12:55 AM,32.0,26.6,80,29.64,10.0,South,8.1,-,N/A,,Partly Cloudy,190,2014-01-14 06:55:00
1:15 AM,32.0,26.6,80,29.63,10.0,South,9.2,-,N/A,,Scattered Clouds,180,2014-01-14 07:15:00
1:35 AM,30.2,26.6,86,29.64,10.0,South,10.4,-,N/A,,Partly Cloudy,190,2014-01-14 07:35:00
1:55 AM,32.0,28.4,87,29.65,10.0,SSW,8.1,-,N/A,,Mostly Cloudy,210,2014-01-14 07:55:00
2:15 AM,37.4,32.0,81,29.65,10.0,WSW,10.4,-,N/A,,Overcast,240,2014-01-14 08:15:00
2:35 AM,41.0,33.8,76,29.66,10.0,West,13.8,-,N/A,Rain,Light Rain,270,2014-01-14 08:35:00
2:55 AM,41.0,33.8,76,29.67,10.0,West,18.4,26.5,N/A,,Overcast,280,2014-01-14 08:55:00
3:15 AM,41.0,33.8,76,29.68,10.0,WNW,18.4,24.2,N/A,,Scattered Clouds,300,2014-01-14 09:15:00
3:35 AM,42.8,33.8,70,29.69,10.0,NW,29.9,47.2,N/A,,Mostly Cloudy,320,2014-01-14 09:35:00
3:55 AM,42.8,33.8,70,29.71,10.0,NW,31.1,41.4,N/A,,Mostly Cloudy,320,2014-01-14 09:55:00
4:15 AM,41.0,32.0,70,29.74,10.0,NW,31.1,42.6,N/A,,Mostly Cloudy,320,2014-01-14 10:15:00
4:35 AM,39.2,30.2,70,29.76,10.0,NW,33.4,39.1,N/A,,Mostly Cloudy,320,2014-01-14 10:35:00
4:55 AM,37.4,28.4,70,29.79,10.0,NW,31.1,48.3,N/A,,Mostly Cloudy,320,2014-01-14 10:55:00
5:15 AM,37.4,28.4,70,29.80,10.0,NW,24.2,38.0,N/A,,Mostly Cloudy,320,2014-01-14 11:15:00
5:35 AM,35.6,26.6,70,29.81,10.0,NW,32.2,48.3,N/A,,Partly Cloudy,320,2014-01-14 11:35:00
5:55 AM,35.6,24.8,65,29.83,10.0,NW,26.5,40.3,N/A,,Clear,320,2014-01-14 11:55:00
6:15 AM,33.8,24.8,70,29.83,10.0,NW,28.8,38.0,N/A,,Clear,320,2014-01-14 12:15:00
6:35 AM,33.8,24.8,70,29.86,10.0,NW,25.3,35.7,N/A,,Clear,320,2014-01-14 12:35:00
6:55 AM,33.8,24.8,70,29.88,10.0,NW,20.7,29.9,N/A,,Clear,320,2014-01-14 12:55:00
7:15 AM,32.0,24.8,75,29.90,10.0,NNW,20.7,27.6,N/A,,Scattered Clouds,330,2014-01-14 13:15:00
7:35 AM,32.0,23.0,69,29.90,10.0,NNW,32.2,47.2,N/A,,Scattered Clouds,330,2014-01-14 13:35:00
7:55 AM,30.2,21.2,69,29.91,10.0,NNW,31.1,44.9,N/A,,Partly Cloudy,330,2014-01-14 13:55:00
8:15 AM,30.2,21.2,69,29.93,10.0,NW,24.2,40.3,N/A,,Clear,320,2014-01-14 14:15:00
8:35 AM,30.2,21.2,69,29.94,10.0,NW,25.3,34.5,N/A,,Clear,320,2014-01-14 14:35:00
8:55 AM,32.0,21.2,64,29.96,-9999.0,NW,25.3,-,N/A,,Scattered Clouds,310,2014-01-14 14:55:00
9:15 AM,32.0,19.4,60,29.96,10.0,NW,32.2,43.7,N/A,,Partly Cloudy,320,2014-01-14 15:15:00
9:35 AM,32.0,17.6,55,29.99,10.0,NW,29.9,44.9,N/A,,Clear,310,2014-01-14 15:35:00
9:55 AM,30.2,15.8,55,30.00,10.0,NW,38.0,49.5,N/A,,Clear,320,2014-01-14 15:55:00
10:15 AM,30.2,17.6,60,30.01,10.0,NW,35.7,46.0,N/A,,Partly Cloudy,320,2014-01-14 16:15:00
10:35 AM,30.2,17.6,60,30.03,10.0,NNW,31.1,42.6,N/A,,Mostly Cloudy,330,2014-01-14 16:35:00
10:55 AM,30.2,15.8,55,30.04,10.0,NNW,29.9,41.4,N/A,,Overcast,330,2014-01-14 16:55:00
11:15 AM,30.2,15.8,55,30.05,10.0,NNW,31.1,-,N/A,,Overcast,330,2014-01-14 17:15:00
11:35 AM,30.2,17.6,60,30.05,10.0,NW,31.1,40.3,N/A,,Overcast,320,2014-01-14 17:35:00
11:55 AM,28.4,15.8,59,30.06,10.0,NW,29.9,38.0,N/A,,Overcast,320,2014-01-14 17:55:00
12:15 PM,30.2,14.0,51,30.06,10.0,NW,28.8,42.6,N/A,,Mostly Cloudy,320,2014-01-14 18:15:00
12:35 PM,30.2,15.8,55,30.06,10.0,NNW,25.3,40.3,N/A,,Mostly Cloudy,330,2014-01-14 18:35:00
12:55 PM,28.4,15.8,59,30.07,10.0,NW,31.1,40.3,N/A,,Mostly Cloudy,320,2014-01-14 18:55:00
1:15 PM,28.4,14.0,55,30.07,10.0,NW,34.5,42.6,N/A,,Mostly Cloudy,320,2014-01-14 19:15:00
1:35 PM,28.4,10.4,47,30.08,10.0,NW,36.8,42.6,N/A,,Mostly Cloudy,320,2014-01-14 19:35:00
1:55 PM,28.4,10.4,47,30.09,10.0,NW,26.5,40.3,N/A,,Mostly Cloudy,320,2014-01-14 19:55:00
2:15 PM,28.4,12.2,51,30.10,10.0,NW,28.8,35.7,N/A,,Mostly Cloudy,310,2014-01-14 20:15:00
2:35 PM,28.4,12.2,51,30.11,10.0,NW,23.0,41.4,N/A,,Mostly Cloudy,310,2014-01-14 20:35:00
2:55 PM,26.6,12.2,55,30.12,-9999.0,NW,33.4,43.7,N/A,,Overcast,320,2014-01-14 20:55:00
3:15 PM,26.6,14.0,59,30.14,10.0,NW,25.3,35.7,N/A,Snow,Light Snow,320,2014-01-14 21:15:00
3:35 PM,26.6,12.2,55,30.15,10.0,NW,25.3,35.7,N/A,,Mostly Cloudy,320,2014-01-14 21:35:00
3:55 PM,26.6,10.4,51,30.16,10.0,NW,26.5,36.8,N/A,,Overcast,320,2014-01-14 21:55:00
4:15 PM,26.6,12.2,55,30.17,10.0,NW,25.3,38.0,N/A,,Overcast,320,2014-01-14 22:15:00
4:35 PM,26.6,10.4,51,30.18,10.0,NW,28.8,36.8,N/A,,Overcast,320,2014-01-14 22:35:00
4:55 PM,26.6,10.4,51,30.18,10.0,NW,25.3,35.7,N/A,,Overcast,320,2014-01-14 22:55:00
5:15 PM,24.8,10.4,54,30.19,10.0,NNW,24.2,35.7,N/A,,Overcast,330,2014-01-14 23:15:00
5:35 PM,24.8,12.2,59,30.19,10.0,NNW,24.2,35.7,N/A,,Overcast,330,2014-01-14 23:35:00
5:55 PM,24.8,12.2,59,30.19,10.0,NNW,19.6,25.3,N/A,,Overcast,330,2014-01-14 23:55:00
6:15 PM,24.8,12.2,59,30.19,10.0,NNW,18.4,26.5,N/A,,Overcast,330,2014-01-15 00:15:00
6:35 PM,24.8,12.2,59,30.20,10.0,NNW,15.0,23.0,N/A,,Overcast,330,2014-01-15 00:35:00
6:55 PM,24.8,12.2,59,30.20,10.0,NNW,19.6,-,N/A,,Overcast,330,2014-01-15 00:55:00
7:15 PM,24.8,12.2,59,30.21,10.0,NW,20.7,28.8,N/A,,Overcast,320,2014-01-15 01:15:00
7:35 PM,24.8,10.4,54,30.21,10.0,NNW,24.2,31.1,N/A,,Overcast,330,2014-01-15 01:35:00
7:55 PM,23.0,12.2,63,30.20,10.0,NW,17.3,26.5,N/A,,Overcast,320,2014-01-15 01:55:00
8:15 PM,23.0,10.4,59,30.20,10.0,NNW,20.7,32.2,N/A,,Overcast,330,2014-01-15 02:15:00
8:35 PM,23.0,8.6,54,30.20,10.0,NNW,21.9,31.1,N/A,,Overcast,330,2014-01-15 02:35:00
8:55 PM,21.2,8.6,58,30.20,10.0,NNW,18.4,28.8,N/A,,Mostly Cloudy,330,2014-01-15 02:55:00
9:15 PM,21.2,8.6,58,30.21,10.0,NNW,18.4,-,N/A,,Partly Cloudy,330,2014-01-15 03:15:00
9:35 PM,19.4,8.6,63,30.21,10.0,NNW,17.3,-,N/A,,Clear,330,2014-01-15 03:35:00
9:55 PM,19.4,8.6,63,30.21,10.0,NW,15.0,-,N/A,,Clear,320,2014-01-15 03:55:00
10:15 PM,19.4,8.6,63,30.21,10.0,NW,13.8,21.9,N/A,,Partly Cloudy,320,2014-01-15 04:15:00
10:35 PM,17.6,8.6,68,30.21,10.0,NW,11.5,18.4,N/A,,Partly Cloudy,320,2014-01-15 04:35:00
10:55 PM,17.6,8.6,68,30.21,10.0,NNW,11.5,-,N/A,,Partly Cloudy,330,2014-01-15 04:55:00
11:15 PM,15.8,8.6,73,30.21,10.0,NW,9.2,-,N/A,,Scattered Clouds,320,2014-01-15 05:15:00
11:35 PM,14.0,8.6,79,30.22,10.0,NW,10.4,-,N/A,,Scattered Clouds,320,2014-01-15 05:35:00
11:55 PM,15.8,8.6,73,30.21,10.0,NW,11.5,-,N/A,,Mostly Cloudy,320,2014-01-15 05:55:00